AirNav   Air Wisconsin Up To $57,000 Bonus
 
 781 users online  

FA61 Shands Jacksonville Hospital Heliport
Jacksonville, Florida, USA

GOING TO JACKSONVILLE?


FAA INFORMATION EFFECTIVE 02 JANUARY 2020

Location

FAA Identifier: FA61
Lat/Long: 30-20-58.3900N 081-39-55.7100W
30-20.973167N 081-39.928500W
30.3495528,-81.6654750
(estimated)
Elevation: 25 ft. / 8 m (estimated)
Variation: 05W (2010)
Time zone: UTC -5 (UTC -4 during Daylight Saving Time)
Zip code: 32209

Heliport Operations

Heliport use: Private use, MEDICAL.
Activation date: 05/1974
Control tower: no
ARTCC: JACKSONVILLE CENTER
FSS: GAINESVILLE FLIGHT SERVICE STATION
NOTAMs facility: FDC (NOTAM-D service not available)
Attendance: CONTINUOUS
Wind indicator: yes
Segmented circle: no
Lights: SS-SR

Heliport Communications

JACKSONVILLE APPROACH: 124.9
WX ASOS at CRG (8 nm E): PHONE 904-646-4670
WX AWOS-3 at HEG (8 nm SW): 119.275 (904-695-0334)
WX ASOS at JAX (9 nm N): PHONE 904-741-4304
WX AWOS-3 at VQQ (13 nm SW): 125.275 (904-778-6934)
WX AWOS-3 at FHB (19 nm NE): 118.075 (904-277-7323)
  • 123.025
  • APCH/DEP SVC PRVDD BY JACKSONVILLE INTL ATCT (JAX) 124.9.

Nearby radio navigation aids

VOR radial/distance  VOR name  Freq  Var
CRGr278/8.1CRAIG VORTAC114.5003W
VQQr058/(14.3)CECIL VOR117.9003W
SGJr330/29.3ST AUGUSTINE VOR/DME109.4006W

 
NDB name  Hdg/Dist  Freq  Var  ID
DINNS141/9.934406WJA .--- .-
REYNOLDS006/23.033807WRYD .-. -.-- -..

Heliport Services

Airframe service: NONE
Powerplant service: NONE

Runway Information

Helipad H1

Dimensions: 50 x 50 ft. / 15 x 15 m
Surface: concrete
ROOFTOP.
Runway edge lights: PERI
Latitude: 30-20.973167N
Longitude: 081-39.928500W
Elevation: 25.0 ft.
Traffic pattern: leftleft
Markings: none

Heliport Ownership and Management from official FAA records

Ownership: Privately-owned
Owner: SHANDS JACKSONVILLE HOSPITAL
655 WEST 8TH STREET, C-251
JACKSONVILLE, FL 32209
Phone 904-244-0411
Manager: CHAD E. MCINTYRE
655 WEST 8TH STREET, C-251
JACKSONVILLE, FL 32209
Phone 904-244-0411

Heliport Operational Statistics

Aircraft based on the field: 1
Helicopters: 1
    

Additional Remarks

A54-H1 LGTD 40FT ELEC POLES; LGTD/MRKD 165FT BLDG
FOR CD CTC JACKSONVILLE APCH AT 904-741-0284.

Instrument Procedures

There are no published instrument procedures at FA61.

Some nearby airports with instrument procedures:

KNIP - Jacksonville Naval Air Station (Towers Field) (7 nm S)
KCRG - Jacksonville Executive Airport at Craig (8 nm E)
KHEG - Herlong Recreational Airport (8 nm SW)
KJAX - Jacksonville International Airport (9 nm N)
KNRB - Mayport Naval Station (Adm David L. McDonald Field) (13 nm E)
KVQQ - Cecil Airport (13 nm SW)
KFHB - Fernandina Beach Municipal Airport (19 nm NE)
 
Loc | Ops | Rwys | IFR | FBO | Links
Com | Nav | Svcs | Stats | Notes
Area around FA61 (Shands Jacksonville Hospital Heliport)
 
Road maps at: MapQuest Bing Google
 
Aerial photo
No photo
 
Sectional chart

 
Airport distance calculator
Flying to Shands Jacksonville Hospital Heliport? Find the distance to fly.

From to FA61

Sunrise and sunset
Times for 19-Jan-2020
 Local
(UTC-5)
 Zulu
(UTC)
Morning civil twilight06:5911:59
Sunrise07:2412:24
Sunset17:5122:51
Evening civil twilight18:1623:16

Current date and time
Zulu (UTC)  19-Jan-2020 11:57:14
Local (UTC-5)  19-Jan-2020 06:57:14
 
METAR
KCRG 
8nm E 
191153Z 22011KT 10SM FEW110 19/15 A3008 RMK AO2 SLP185 T01890150 10189 20178 56002
KNIP 
8nm S 
191053Z 22013G21KT 10SM SCT060 BKN160 OVC200 20/14 A3009 RMK AO2 SLP185 T02000144
KHEG 
8nm SW 
191155Z AUTO VRB07G14KT 8SM FEW019 FEW037 BKN120 19/15 A3010 RMK AO2
KJAX 
9nm N 
191056Z 21009KT 10SM SCT120 BKN160 OVC200 19/14 A3007 RMK AO2 SLP181 T01890144
KNRB 
13nm E 
191152Z AUTO 22012KT 10SM BKN110 18/15 A3007 RMK AO2 RAB21E40 SLP182 P0000 60000 T01830150 10189 20172 56003
KVQQ 
14nm SW 
191150Z 20010KT 10SM SCT120 19/15 A3008
KFHB 
19nm NE 
191135Z AUTO 22013G19KT 10SM CLR 19/16 A3007 RMK AO2 T01880162
TAF
KCRG 
8nm E 
190538Z 1906/2006 20006KT P6SM BKN250 FM191200 20006KT P6SM VCSH SCT020 OVC040 TEMPO 1914/1918 5SM -SHRA BR OVC015 FM191800 22012KT P6SM VCSH BKN015 OVC100 FM192000 27010KT P6SM VCSH SCT018 OVC025 FM200000 31008KT P6SM BKN100
KNIP 
8nm S 
1907/2007 20012KT 9999 BKN250 QNH3013INS BECMG 1910/1912 23010KT 9999 VCSH BKN050 QNH3015INS BECMG 1918/1920 27010KT 9999 VCSH BKN050 QNH3017INS TEMPO 1920/1923 9000 -SHRA BKN005 OVC010 FM200000 32012KT 9999 VCSH BKN250 QNH3020INS T19/1918Z T13/2003Z COR 0727 FN00218
KJAX 
9nm N 
190538Z 1906/2006 20006KT P6SM FEW120 BKN250 FM191000 20006KT P6SM VCSH SCT020 OVC040 TEMPO 1914/1918 5SM -SHRA BR BKN008 BKN015 FM191800 24011KT P6SM VCSH BKN015 OVC100 FM192000 27010KT P6SM SCT018 OVC025 FM200000 30005KT P6SM OVC100
KNRB 
13nm E 
1907/2007 19010KT 9999 SKC QNH3012INS BECMG 1910/1912 23010KT 9999 VCSH BKN050 QNH3020INS BECMG 1918/1920 27010KT 9999 VCSH BKN050 QNH3017INS TEMPO 1920/1923 9000 -SHRA BKN005 OVC010 FM200000 32012KT 9999 VCSH BKN250 QNH3020INS AUTOMATED SENSOR METWATCH 1907 TIL 2110 T17/1912Z T21/1918Z COR 0727 FN00218
KVQQ 
14nm SW 
190538Z 1906/2006 19004KT P6SM SCT120 BKN250 FM191000 20006KT P6SM VCSH SCT015 OVC040 TEMPO 1914/1918 5SM -SHRA BR BKN008 BKN015 FM191800 22011KT P6SM VCSH BKN015 OVC100 FM192000 27010KT P6SM SCT018 OVC025 FM200000 29006KT P6SM BKN100
NOTAMs
Click for the latest NOTAMs
NOTAMs are issued by the DoD/FAA and will open in a separate window not controlled by AirNav.

 

 
 

Would you like to see your business listed on this page?

 If your business provides an interesting product or service to pilots, flight crews, aircraft, or users of the Shands Jacksonville Hospital Heliport, you should consider listing it here.  To start the listing process, click on the button below
 
Add a business
 

Other Pages about Shands Jacksonville Hospital Heliport

Update a link
 
Copyright © AirNav, LLC. All rights reserved. Privacy Policy  Contact